createdAt,value
2023-05-12T00:02:11.340Z,3.90
2023-05-12T00:04:38.005Z,3.47
2023-05-12T00:07:04.944Z,4.10
2023-05-12T00:09:31.494Z,3.90
2023-05-12T00:11:58.323Z,3.95
2023-05-12T00:14:24.961Z,3.80
2023-05-12T00:16:53.091Z,4.30
2023-05-12T00:19:19.979Z,3.92
2023-05-12T00:21:47.218Z,4.20
2023-05-12T00:24:14.009Z,3.50
2023-05-12T00:26:40.652Z,3.83
2023-05-12T00:29:07.321Z,3.90
2023-05-12T00:31:34.029Z,3.50
2023-05-12T00:34:02.157Z,3.80
2023-05-12T00:36:28.890Z,3.78
2023-05-12T00:38:55.505Z,4.05
2023-05-12T00:41:22.142Z,3.60
2023-05-12T00:43:48.862Z,4.00
2023-05-12T00:46:15.991Z,3.70
2023-05-12T00:48:43.406Z,4.13
2023-05-12T00:51:12.316Z,4.10
2023-05-12T00:53:49.251Z,3.97
2023-05-12T00:56:18.154Z,4.32
2023-05-12T00:58:45.285Z,3.93
2023-05-12T01:01:12.096Z,3.97
2023-05-12T01:03:38.906Z,4.53
2023-05-12T01:06:12.612Z,4.70
2023-05-12T01:08:41.188Z,4.80
2023-05-12T01:11:08.090Z,4.30
2023-05-12T01:13:34.842Z,4.70
2023-05-12T01:16:03.147Z,4.68
2023-05-12T01:18:32.473Z,4.78
2023-05-12T01:21:00.594Z,5.40
2023-05-12T01:23:31.013Z,4.63
2023-05-12T01:26:03.623Z,4.57
2023-05-12T01:28:30.453Z,5.00
2023-05-12T01:30:57.314Z,4.80
2023-05-12T01:33:24.204Z,5.38
2023-05-12T01:35:50.831Z,5.60
2023-05-12T01:38:17.497Z,5.53
2023-05-12T01:40:44.148Z,4.85
2023-05-12T01:43:12.172Z,5.22
2023-05-12T01:45:38.811Z,4.97
2023-05-12T01:48:05.868Z,4.87
2023-05-12T01:50:32.591Z,4.50
2023-05-12T01:52:59.264Z,4.43
2023-05-12T01:55:25.939Z,4.85
2023-05-12T01:57:52.557Z,5.07
2023-05-12T02:00:20.912Z,4.80
2023-05-12T02:02:47.812Z,5.30
2023-05-12T02:05:14.595Z,5.00
2023-05-12T02:10:21.872Z,3.97
2023-05-12T02:12:48.622Z,4.33
2023-05-12T02:15:15.347Z,4.25
2023-05-12T02:17:43.422Z,4.38
2023-05-12T02:20:10.829Z,4.00
2023-05-12T02:22:37.615Z,4.00
2023-05-12T02:25:04.931Z,4.07
2023-05-12T02:27:31.673Z,4.50
2023-05-12T02:29:58.414Z,4.55
2023-05-12T02:32:25.018Z,4.32
2023-05-12T02:34:53.214Z,4.25
2023-05-12T02:37:19.820Z,4.07
2023-05-12T02:39:46.494Z,4.10
2023-05-12T02:42:13.211Z,4.57
2023-05-12T02:44:39.847Z,5.25
2023-05-12T02:47:06.608Z,4.30
2023-05-12T02:49:33.257Z,4.37
2023-05-12T02:52:01.287Z,4.80
2023-05-12T02:54:27.955Z,4.85
2023-05-12T02:56:54.615Z,5.55
2023-05-12T02:59:21.359Z,5.28
2023-05-12T03:01:48.168Z,5.00
2023-05-12T03:04:14.834Z,4.72
2023-05-12T03:06:41.538Z,5.38
2023-05-12T03:09:09.579Z,4.85
2023-05-12T03:11:36.264Z,5.35
2023-05-12T03:14:02.946Z,4.53
2023-05-12T03:16:29.604Z,4.43
2023-05-12T03:18:56.240Z,4.55
2023-05-12T03:21:22.951Z,5.25
2023-05-12T03:23:49.591Z,5.03
2023-05-12T03:26:17.620Z,5.00
2023-05-12T03:28:44.289Z,4.90
2023-05-12T03:31:10.985Z,5.00
2023-05-12T03:33:37.720Z,5.75
2023-05-12T03:36:05.045Z,5.03
2023-05-12T03:38:31.761Z,5.13
2023-05-12T03:41:04.614Z,6.63
2023-05-12T03:43:33.021Z,5.95
2023-05-12T03:46:00.078Z,5.55
2023-05-12T03:48:27.258Z,5.15
2023-05-12T03:50:53.850Z,5.30
2023-05-12T03:53:20.529Z,5.82
2023-05-12T03:55:47.327Z,6.20
2023-05-12T03:58:14.030Z,5.70
2023-05-12T04:00:42.319Z,5.75
2023-05-12T04:03:09.087Z,5.50
2023-05-12T04:05:35.760Z,6.05
2023-05-12T04:08:02.378Z,5.47
2023-05-12T04:10:29.027Z,5.45
2023-05-12T04:12:55.675Z,5.72
2023-05-12T04:15:22.792Z,5.20
2023-05-12T04:17:50.804Z,5.10
2023-05-12T04:20:17.831Z,5.63
2023-05-12T04:22:44.558Z,6.13
2023-05-12T04:25:11.192Z,5.40
2023-05-12T04:27:38.109Z,5.37
2023-05-12T04:30:05.854Z,5.68
2023-05-12T04:32:32.593Z,5.97
2023-05-12T04:35:00.597Z,5.82
2023-05-12T04:37:27.369Z,6.35
2023-05-12T04:39:54.081Z,5.53
2023-05-12T04:42:20.712Z,5.78
2023-05-12T04:44:47.370Z,5.38
2023-05-12T04:47:14.024Z,5.38
2023-05-12T04:49:40.626Z,5.75
2023-05-12T04:52:08.801Z,5.87
2023-05-12T04:54:35.383Z,6.20
2023-05-12T04:57:02.017Z,6.20
2023-05-12T04:59:28.591Z,6.25
2023-05-12T05:01:55.342Z,6.45
2023-05-12T05:04:22.069Z,6.03
2023-05-12T05:06:48.794Z,5.93
2023-05-12T05:09:16.848Z,6.82
2023-05-12T05:11:43.525Z,6.47
2023-05-12T05:14:10.185Z,6.68
2023-05-12T05:16:37.147Z,7.67
2023-05-12T05:19:06.532Z,9.27
2023-05-12T05:21:35.930Z,7.78
2023-05-12T05:24:02.561Z,6.93
2023-05-12T05:26:30.611Z,7.07
2023-05-12T05:28:57.295Z,7.43
2023-05-12T05:31:24.037Z,6.32
2023-05-12T05:33:50.783Z,5.97
2023-05-12T05:36:17.574Z,6.78
2023-05-12T05:38:44.223Z,5.90
2023-05-12T05:41:10.898Z,6.53
2023-05-12T05:43:38.861Z,6.35
2023-05-12T05:46:05.531Z,5.68
2023-05-12T05:48:32.092Z,5.90
2023-05-12T05:50:58.751Z,6.63
2023-05-12T05:53:25.445Z,6.10
2023-05-12T05:55:52.045Z,6.45
2023-05-12T05:58:18.653Z,5.88
2023-05-12T06:00:46.793Z,6.15
2023-05-12T06:03:13.609Z,6.63
2023-05-12T06:05:40.505Z,6.40
2023-05-12T06:08:07.122Z,5.63
2023-05-12T06:10:33.752Z,5.85
2023-05-12T06:13:00.496Z,5.80
2023-05-12T06:15:27.185Z,5.35
2023-05-12T06:17:55.461Z,5.20
2023-05-12T06:20:22.351Z,5.35
2023-05-12T06:22:49.017Z,4.90
2023-05-12T06:25:15.725Z,5.25
2023-05-12T06:27:42.338Z,5.45
2023-05-12T06:30:09.942Z,5.03
2023-05-12T06:32:55.222Z,5.57
2023-05-12T06:35:22.208Z,5.28
2023-05-12T06:37:48.924Z,4.65
2023-05-12T06:40:15.618Z,5.10
2023-05-12T06:42:42.286Z,4.40
2023-05-12T06:45:09.881Z,4.65
2023-05-12T06:47:36.480Z,4.30
2023-05-12T06:50:05.528Z,4.32
2023-05-12T06:52:32.163Z,4.90
2023-05-12T06:54:58.797Z,4.77
2023-05-12T06:57:25.458Z,4.68
2023-05-12T06:59:52.283Z,4.72
2023-05-12T07:02:18.869Z,4.30
2023-05-12T07:04:45.530Z,5.18
2023-05-12T07:07:13.603Z,3.93
2023-05-12T07:09:40.246Z,4.45
2023-05-12T07:12:07.664Z,3.90
2023-05-12T07:14:34.312Z,3.90
2023-05-12T07:17:00.926Z,4.07
2023-05-12T07:19:27.559Z,4.60
2023-05-12T07:21:54.207Z,4.65
2023-05-12T07:24:22.159Z,4.30
2023-05-12T07:26:48.809Z,4.80
2023-05-12T07:29:15.435Z,4.82
2023-05-12T07:31:52.326Z,3.90
2023-05-12T07:34:18.928Z,3.63
2023-05-12T07:36:45.585Z,4.63
2023-05-12T07:39:12.328Z,3.33
2023-05-12T07:41:40.524Z,3.75
2023-05-12T07:44:07.150Z,3.40
2023-05-12T07:46:33.745Z,3.20
2023-05-12T07:49:00.417Z,2.92
2023-05-12T07:51:27.049Z,3.25
2023-05-12T07:53:53.682Z,3.53
2023-05-12T07:56:20.417Z,3.00
2023-05-12T07:58:48.422Z,3.40
2023-05-12T08:01:15.210Z,3.45
2023-05-12T08:03:42.092Z,3.38
2023-05-12T08:06:08.736Z,2.95
2023-05-12T08:08:35.339Z,3.20
2023-05-12T08:11:02.060Z,3.00
2023-05-12T08:13:28.753Z,3.47
2023-05-12T08:15:56.670Z,3.70
2023-05-12T08:18:23.332Z,3.47
2023-05-12T08:20:50.052Z,3.20
2023-05-12T08:23:17.096Z,3.33
2023-05-12T08:25:43.757Z,3.22
2023-05-12T08:28:10.576Z,2.70
2023-05-12T08:30:37.476Z,3.45
2023-05-12T08:33:05.840Z,3.77
2023-05-12T08:35:32.825Z,3.30
2023-05-12T08:37:59.425Z,3.20
2023-05-12T08:40:29.641Z,2.95
2023-05-12T08:43:06.135Z,2.80
2023-05-12T08:45:35.889Z,2.73
2023-05-12T08:48:04.292Z,3.00
2023-05-12T08:50:35.394Z,3.00
2023-05-12T08:53:03.644Z,2.17
2023-05-12T08:55:33.551Z,2.55
2023-05-12T08:58:02.971Z,2.37
2023-05-12T09:00:31.244Z,2.55
2023-05-12T09:03:00.892Z,2.63
2023-05-12T09:05:29.895Z,2.50
2023-05-12T09:07:58.422Z,2.28
2023-05-12T09:10:35.178Z,1.87
2023-05-12T09:13:04.439Z,2.10
2023-05-12T09:15:35.277Z,2.10
2023-05-12T09:18:02.002Z,2.20
2023-05-12T09:20:31.740Z,1.98
2023-05-12T09:23:13.011Z,2.03
2023-05-12T09:25:39.811Z,1.73
2023-05-12T09:28:06.439Z,1.98
2023-05-12T09:30:33.066Z,1.95
2023-05-12T09:33:06.571Z,1.80
2023-05-12T09:35:38.192Z,2.03
2023-05-12T09:38:10.227Z,2.10
2023-05-12T09:40:37.491Z,2.30
2023-05-12T09:43:05.544Z,2.00
2023-05-12T09:45:34.358Z,1.75
2023-05-12T09:48:08.279Z,2.20
2023-05-12T09:50:46.546Z,2.00
2023-05-12T09:53:15.866Z,2.08
2023-05-12T09:55:43.280Z,1.80
2023-05-12T09:58:10.699Z,2.05
2023-05-12T10:00:52.392Z,1.93
2023-05-12T10:03:26.412Z,1.70
2023-05-12T10:05:57.122Z,1.92
2023-05-12T10:08:29.934Z,1.75
2023-05-12T10:10:59.423Z,2.20
2023-05-12T10:13:26.791Z,1.90
2023-05-12T10:15:56.126Z,1.25
2023-05-12T10:18:23.719Z,1.60
2023-05-12T10:20:51.956Z,1.30
2023-05-12T10:23:19.637Z,1.63
2023-05-12T10:25:47.855Z,1.70
2023-05-12T10:28:14.531Z,1.63
2023-05-12T10:30:42.846Z,1.50
2023-05-12T10:33:09.881Z,1.50
2023-05-12T10:35:37.620Z,1.55
2023-05-12T10:38:07.126Z,1.40
2023-05-12T10:40:33.821Z,1.40
2023-05-12T10:43:01.943Z,1.60
2023-05-12T10:45:28.771Z,1.55
2023-05-12T10:48:05.756Z,1.80
2023-05-12T10:50:32.669Z,1.70
2023-05-12T10:52:59.503Z,1.85
2023-05-12T10:55:33.797Z,2.03
2023-05-12T10:58:07.459Z,1.75
2023-05-12T11:00:44.865Z,2.00
2023-05-12T11:03:14.729Z,1.87
2023-05-12T11:05:43.646Z,2.00
2023-05-12T11:08:11.584Z,1.92
2023-05-12T11:10:41.888Z,1.67
2023-05-12T11:13:10.059Z,1.90
2023-05-12T11:15:37.435Z,2.20
2023-05-12T11:18:04.183Z,1.80
2023-05-12T11:20:31.250Z,2.10
2023-05-12T11:22:57.972Z,1.90
2023-05-12T11:25:26.676Z,2.10
2023-05-12T11:27:53.494Z,1.50
2023-05-12T11:30:22.016Z,1.83
2023-05-12T11:32:48.845Z,2.00
2023-05-12T11:35:17.065Z,2.22
2023-05-12T11:37:45.497Z,2.20
2023-05-12T11:40:16.691Z,1.70
2023-05-12T11:42:43.930Z,2.00
2023-05-12T11:45:21.307Z,2.42
2023-05-12T11:47:48.263Z,1.95
2023-05-12T11:50:21.211Z,2.15
2023-05-12T11:52:47.863Z,1.80
2023-05-12T11:55:20.631Z,1.75
2023-05-12T11:57:59.147Z,1.90
2023-05-12T12:00:32.618Z,2.10
2023-05-12T12:03:14.768Z,1.88
2023-05-12T12:05:43.117Z,1.53
2023-05-12T12:08:11.602Z,1.80
2023-05-12T12:10:38.619Z,1.88
2023-05-12T12:13:05.546Z,1.85
2023-05-12T12:15:33.643Z,1.70
2023-05-12T12:18:00.384Z,1.90
2023-05-12T12:20:27.234Z,2.03
2023-05-12T12:22:53.933Z,2.03
2023-05-12T12:25:21.015Z,1.83
2023-05-12T12:27:48.448Z,1.75
2023-05-12T12:30:16.208Z,1.70
2023-05-12T12:32:45.057Z,1.90
2023-05-12T12:35:12.439Z,1.70
2023-05-12T12:37:39.849Z,1.80
2023-05-12T12:40:07.753Z,1.70
2023-05-12T12:42:34.888Z,1.90
2023-05-12T12:45:02.142Z,1.70
2023-05-12T12:47:28.871Z,1.70
2023-05-12T12:49:56.951Z,2.00
2023-05-12T12:52:23.596Z,1.60
2023-05-12T12:54:53.145Z,2.10
2023-05-12T12:57:19.777Z,1.98
2023-05-12T12:59:46.378Z,1.83
2023-05-12T13:02:13.118Z,1.60
2023-05-12T13:04:39.819Z,2.08
2023-05-12T13:07:07.820Z,2.40
2023-05-12T13:09:34.458Z,2.08
2023-05-12T13:12:01.178Z,2.60
2023-05-12T13:14:28.020Z,2.20
2023-05-12T13:16:54.784Z,2.15
2023-05-12T13:19:21.441Z,2.27
2023-05-12T13:21:48.157Z,1.98
2023-05-12T13:24:16.370Z,2.03
2023-05-12T13:26:43.041Z,2.35
2023-05-12T13:29:09.711Z,2.10
2023-05-12T13:31:36.342Z,2.07
2023-05-12T13:34:03.084Z,1.77
2023-05-12T13:36:29.724Z,2.25
2023-05-12T13:38:56.435Z,1.92
2023-05-12T13:41:24.408Z,2.20
2023-05-12T13:43:51.186Z,1.80
2023-05-12T13:46:17.900Z,2.22
2023-05-12T13:48:44.632Z,2.35
2023-05-12T13:51:11.217Z,2.40
2023-05-12T13:53:37.953Z,2.03
2023-05-12T13:56:05.013Z,2.03
2023-05-12T13:58:33.114Z,2.30
2023-05-12T14:01:00.072Z,2.00
2023-05-12T14:03:26.710Z,2.10
2023-05-12T14:05:53.269Z,2.30
2023-05-12T14:08:20.027Z,2.10
2023-05-12T14:10:46.688Z,2.50
2023-05-12T14:13:13.291Z,2.30
2023-05-12T14:15:48.648Z,1.80
2023-05-12T14:18:16.581Z,2.28
2023-05-12T14:20:43.651Z,2.37
2023-05-12T14:23:10.317Z,1.95
2023-05-12T14:25:36.910Z,1.85
2023-05-12T14:28:03.660Z,2.05
2023-05-12T14:30:30.535Z,1.90
2023-05-12T14:32:58.649Z,1.83
2023-05-12T14:35:25.474Z,2.00
2023-05-12T14:37:52.074Z,2.00
2023-05-12T14:40:18.729Z,2.53
2023-05-12T14:42:45.380Z,2.15
2023-05-12T14:45:12.164Z,1.87
2023-05-12T14:47:38.814Z,1.92
2023-05-12T14:50:07.674Z,2.28
2023-05-12T14:52:34.294Z,1.88
2023-05-12T14:55:00.884Z,2.00
2023-05-12T14:57:27.528Z,1.97
2023-05-12T14:59:54.262Z,1.83
2023-05-12T15:02:20.953Z,2.03
2023-05-12T15:04:48.640Z,1.95
2023-05-12T15:07:16.580Z,1.95
2023-05-12T15:09:43.200Z,1.93
2023-05-12T15:12:10.058Z,1.60
2023-05-12T15:14:36.706Z,2.13
2023-05-12T15:17:03.596Z,1.88
2023-05-12T15:19:30.289Z,1.90
2023-05-12T15:21:56.875Z,2.10
2023-05-12T15:24:24.940Z,2.10
2023-05-12T15:26:51.638Z,2.03
2023-05-12T15:29:18.274Z,2.00
2023-05-12T15:31:44.999Z,1.98
2023-05-12T15:34:11.697Z,2.10
2023-05-12T15:36:38.288Z,2.03
2023-05-12T15:39:04.949Z,1.90
2023-05-12T15:41:32.975Z,2.17
2023-05-12T15:43:59.629Z,1.73
2023-05-12T15:46:26.375Z,1.80
2023-05-12T15:48:53.092Z,2.00
2023-05-12T15:51:19.797Z,2.10
2023-05-12T15:53:46.502Z,2.00
2023-05-12T15:56:13.163Z,2.17
2023-05-12T15:58:41.293Z,1.87
2023-05-12T16:01:07.989Z,1.85
2023-05-12T16:03:34.846Z,2.30
2023-05-12T16:06:01.552Z,2.13
2023-05-12T16:08:28.164Z,2.30
2023-05-12T16:10:54.996Z,2.23
2023-05-12T16:13:21.635Z,2.22
2023-05-12T16:15:50.802Z,2.33
2023-05-12T16:18:18.036Z,2.40
2023-05-12T16:20:44.906Z,2.65
2023-05-12T16:23:11.577Z,1.80
2023-05-12T16:25:38.394Z,2.30
2023-05-12T16:28:05.040Z,2.22
2023-05-12T16:30:31.631Z,1.92
2023-05-12T16:33:00.001Z,2.30
2023-05-12T16:35:26.635Z,2.10
2023-05-12T16:37:53.428Z,2.25
2023-05-12T16:40:20.260Z,1.95
2023-05-12T16:42:46.901Z,2.28
2023-05-12T16:45:13.485Z,2.20
2023-05-12T16:47:40.086Z,2.30
2023-05-12T16:50:09.895Z,2.40
2023-05-12T16:52:36.524Z,2.03
2023-05-12T16:55:03.263Z,2.22
2023-05-12T16:57:29.887Z,2.38
2023-05-12T16:59:56.502Z,2.43
2023-05-12T17:02:23.529Z,2.40
2023-05-12T17:04:50.382Z,2.38
2023-05-12T17:07:18.367Z,2.28
2023-05-12T17:09:45.012Z,3.00
2023-05-12T17:12:11.728Z,2.30
2023-05-12T17:14:38.347Z,2.22
2023-05-12T17:17:05.374Z,2.40
2023-05-12T17:19:32.198Z,2.58
2023-05-12T17:21:59.029Z,2.50
2023-05-12T17:24:27.353Z,2.80
2023-05-12T17:26:54.097Z,3.00
2023-05-12T17:29:20.842Z,2.90
2023-05-12T17:31:47.629Z,2.63
2023-05-12T17:34:14.405Z,2.40
2023-05-12T17:36:41.094Z,2.60
2023-05-12T17:39:07.770Z,2.80
2023-05-12T17:41:35.909Z,2.75
2023-05-12T17:44:02.546Z,2.67
2023-05-12T17:46:29.222Z,3.00
2023-05-12T17:48:56.154Z,2.60
2023-05-12T17:51:23.282Z,2.83
2023-05-12T17:53:49.954Z,2.90
2023-05-12T17:56:16.631Z,2.45
2023-05-12T17:58:44.611Z,2.80
2023-05-12T18:01:11.272Z,2.80
2023-05-12T18:03:38.098Z,3.00
2023-05-12T18:06:04.925Z,2.42
2023-05-12T18:08:31.671Z,2.70
2023-05-12T18:10:58.306Z,3.03
2023-05-12T18:13:24.969Z,2.40
2023-05-12T18:15:53.172Z,2.72
2023-05-12T18:18:19.947Z,2.95
2023-05-12T18:20:46.639Z,2.80
2023-05-12T18:23:13.332Z,2.70
2023-05-12T18:25:39.959Z,2.93
2023-05-12T18:28:06.710Z,2.60
2023-05-12T18:30:33.455Z,2.80
2023-05-12T18:33:01.513Z,3.10
2023-05-12T18:35:28.313Z,3.03
2023-05-12T18:37:54.878Z,3.17
2023-05-12T18:40:21.659Z,2.95
2023-05-12T18:42:48.432Z,3.20
2023-05-12T18:45:15.040Z,2.67
2023-05-12T18:47:51.816Z,3.03
2023-05-12T18:50:19.803Z,2.97
2023-05-12T18:52:46.385Z,2.60
2023-05-12T18:55:13.026Z,2.72
2023-05-12T18:57:39.660Z,2.88
2023-05-12T19:00:07.605Z,2.70
2023-05-12T19:02:34.309Z,2.60
2023-05-12T19:05:01.537Z,2.35
2023-05-12T19:07:29.656Z,2.92
2023-05-12T19:09:56.292Z,2.90
2023-05-12T19:12:22.876Z,3.78
2023-05-12T19:14:49.566Z,2.77
2023-05-12T19:17:16.242Z,3.67
2023-05-12T19:19:42.897Z,3.20
2023-05-12T19:22:09.549Z,3.85
2023-05-12T19:24:37.592Z,3.75
2023-05-12T19:27:04.344Z,3.17
2023-05-12T19:29:30.871Z,3.67
2023-05-12T19:31:57.536Z,3.60
2023-05-12T19:34:24.150Z,3.47
2023-05-12T19:36:51.728Z,3.45
2023-05-12T19:39:18.374Z,3.33
2023-05-12T19:41:46.498Z,4.15
2023-05-12T19:44:13.210Z,4.25
2023-05-12T19:46:40.038Z,4.55
2023-05-12T19:49:06.726Z,4.03
2023-05-12T19:51:33.416Z,4.70
2023-05-12T19:54:00.147Z,4.72
2023-05-12T19:56:26.802Z,5.40
2023-05-12T19:58:54.865Z,5.03
2023-05-12T20:01:21.553Z,4.80
2023-05-12T20:03:48.246Z,4.73
2023-05-12T20:06:14.879Z,5.47
2023-05-12T20:08:41.519Z,4.90
2023-05-12T20:11:08.209Z,5.20
2023-05-12T20:13:34.928Z,4.85
2023-05-12T20:16:03.129Z,5.00
2023-05-12T20:18:30.100Z,4.88
2023-05-12T20:20:56.657Z,5.38
2023-05-12T20:23:23.351Z,5.05
2023-05-12T20:25:50.003Z,5.35
2023-05-12T20:28:17.324Z,6.00
2023-05-12T20:30:44.331Z,5.53
2023-05-12T20:33:12.326Z,6.00
2023-05-12T20:35:49.115Z,4.78
2023-05-12T20:38:15.772Z,5.43
2023-05-12T20:40:42.408Z,4.23
2023-05-12T20:43:09.133Z,4.60
2023-05-12T20:45:36.652Z,5.18
2023-05-12T20:48:03.555Z,4.55
2023-05-12T20:50:31.684Z,4.78
2023-05-12T20:52:58.359Z,5.10
2023-05-12T20:55:25.163Z,4.72
2023-05-12T20:57:51.904Z,5.50
2023-05-12T21:00:18.979Z,4.72
2023-05-12T21:02:45.698Z,4.78
2023-05-12T21:05:12.600Z,4.13
2023-05-12T21:07:40.667Z,4.50
2023-05-12T21:10:08.112Z,3.88
2023-05-12T21:12:34.814Z,4.40
2023-05-12T21:15:01.428Z,4.25
2023-05-12T21:17:28.193Z,4.00
2023-05-12T21:19:54.829Z,4.13
2023-05-12T21:22:21.496Z,4.30
2023-05-12T21:24:51.596Z,3.35
2023-05-12T21:27:18.486Z,3.60
2023-05-12T21:29:45.104Z,4.07
2023-05-12T21:32:11.894Z,3.55
2023-05-12T21:34:38.575Z,2.70
2023-05-12T21:37:05.358Z,3.60
2023-05-12T21:39:31.970Z,3.28
2023-05-12T21:42:00.006Z,3.00
2023-05-12T21:44:26.562Z,3.03
2023-05-12T21:46:53.247Z,2.58
2023-05-12T21:49:19.898Z,2.75
2023-05-12T21:51:46.580Z,3.17
2023-05-12T21:54:13.272Z,2.10
2023-05-12T21:56:39.949Z,1.80
2023-05-12T21:59:07.962Z,1.45
2023-05-12T22:01:34.744Z,1.50
2023-05-12T22:04:01.510Z,1.88
2023-05-12T22:06:28.198Z,1.50
2023-05-12T22:08:55.158Z,1.60
2023-05-12T22:11:21.924Z,1.50
2023-05-12T22:13:48.917Z,1.70
2023-05-12T22:16:18.580Z,1.73
2023-05-12T22:18:46.649Z,1.40
2023-05-12T22:21:13.358Z,1.27
2023-05-12T22:23:40.021Z,1.50
2023-05-12T22:26:06.683Z,1.70
2023-05-12T22:28:33.316Z,1.80
2023-05-12T22:31:00.117Z,1.53
2023-05-12T22:33:28.098Z,1.52
2023-05-12T22:35:54.737Z,1.45
2023-05-12T22:38:21.412Z,1.83
2023-05-12T22:40:48.117Z,1.90
2023-05-12T22:43:14.776Z,1.50
2023-05-12T22:45:41.361Z,1.88
2023-05-12T22:48:08.003Z,1.70
2023-05-12T22:50:36.315Z,1.92
2023-05-12T22:53:02.949Z,2.35
2023-05-12T22:55:29.654Z,2.13
2023-05-12T22:57:56.462Z,2.33
2023-05-12T23:00:23.319Z,2.03
2023-05-12T23:02:50.111Z,2.30
2023-05-12T23:05:16.736Z,3.50
2023-05-12T23:07:45.107Z,2.30
2023-05-12T23:10:12.128Z,2.00
2023-05-12T23:12:38.721Z,2.10
2023-05-12T23:15:05.936Z,1.98
2023-05-12T23:17:32.631Z,2.03
2023-05-12T23:19:59.393Z,1.60
2023-05-12T23:22:26.086Z,2.08
2023-05-12T23:24:54.299Z,2.00
2023-05-12T23:27:20.964Z,2.40
2023-05-12T23:29:47.618Z,2.72
2023-05-12T23:32:14.275Z,2.60
2023-05-12T23:34:40.986Z,2.72
2023-05-12T23:37:07.669Z,2.53
2023-05-12T23:39:34.661Z,2.33
2023-05-12T23:42:02.707Z,2.45
2023-05-12T23:44:29.371Z,2.20
2023-05-12T23:46:56.017Z,2.42
2023-05-12T23:49:22.682Z,2.42
2023-05-12T23:51:49.388Z,2.00
2023-05-12T23:54:16.017Z,2.10
2023-05-12T23:56:42.672Z,2.47
2023-05-12T23:59:10.745Z,2.53
